Holly Ridge, NC (28445)

5:37 AM EDT on August 25, 2016 (GMT -0400)
Turtle Cove, Surf City, NC | | Change Station

Elev 30 ft 34.42 °N, 77.55 °W | Updated 3 days ago

Clear
Clear
73 °F
Feels Like 73 °F
N
3
Wind Variable Wind from NNE
Gusts mph

Today
High -- | Low -- °F
--% Chance of Precip.
Yesterday
High -- | Low -- °F
Precip. -- in
Pressure 30.15 in
Visibility 10.0 miles
Clouds Overcast 4000 ft
Dew Point 69 °F
Humidity 86%
Rainfall in
Snow Depth Not available.
6:38 AM 7:44 PM
Waning Gibbous, 47% visible
METAR KNCA 250856Z AUTO 34003KT 10SM OVC040 22/20 A3014 RMK AO2 SLP209 T02220200 55007
Pressure 30.15 in
Visibility 10.0 miles
Clouds Overcast 4000 ft
Dew Point 69 °F
Humidity 86%
Rainfall in
Snow Depth Not available.
6:38 AM 7:44 PM
Waning Gibbous, 47% visible
METAR KNCA 250856Z AUTO 34003KT 10SM OVC040 22/20 A3014 RMK AO2 SLP209 T02220200 55007

10-Day Weather Forecast

Almanac

Astronomy

Aug. 25, 2016 Rise Set
Actual Time
Civil Twilight
Nautical Twilight
Astronomical Twilight
Moon
Length of Visible Light
Length of Day
Tomorrow will be .
, % of the Moon is Illuminated

Today's Extremes

State Highs State Lows

Community

WunderPhotos

Upload Photos

1,934,814 photos uploaded!

WunderBlog® & News

Nearby

Air Quality

  Air Quality AQ Index Pollutant
Not available.

Snow Depth

Station Depth Elevation

Earthquake Activity

City Distance Mag. Time & Date
Minimum magnitude displayed is 2.5.

Coastal Water Temperatures

Place Temperature

Stations

Nearby Weather Stations

Station Location Temp. Windchill Dew Point Humidity Wind Precip. Elev Updated Type
                   

Watches & Warnings

There are currently no watches in effect.